createdAt,value
2022-12-13T00:00:46.073Z,27.45
2022-12-13T00:03:12.705Z,27.05
2022-12-13T00:05:45.465Z,27.05
2022-12-13T00:08:12.216Z,28.15
2022-12-13T00:10:38.809Z,28.08
2022-12-13T00:13:05.345Z,27.92
2022-12-13T00:15:31.778Z,26.75
2022-12-13T00:17:58.232Z,27.52
2022-12-13T00:20:24.767Z,28.58
2022-12-13T00:22:52.789Z,27.42
2022-12-13T00:25:21.363Z,27.55
2022-12-13T00:27:47.962Z,26.50
2022-12-13T00:30:14.424Z,28.35
2022-12-13T00:32:40.910Z,28.77
2022-12-13T00:35:07.657Z,28.65
2022-12-13T00:37:34.231Z,27.05
2022-12-13T00:40:00.690Z,27.42
2022-12-13T00:42:27.147Z,27.40
2022-12-13T00:44:53.803Z,26.52
2022-12-13T00:47:22.306Z,27.77
2022-12-13T00:49:48.884Z,27.85
2022-12-13T00:52:15.537Z,26.98
2022-12-13T00:54:41.981Z,29.48
2022-12-13T00:57:08.522Z,26.70
2022-12-13T00:59:34.991Z,28.38
2022-12-13T01:02:03.557Z,28.00
2022-12-13T01:04:29.995Z,27.95
2022-12-13T01:06:56.527Z,28.92
2022-12-13T01:09:29.754Z,27.25
2022-12-13T01:11:58.778Z,26.67
2022-12-13T01:14:25.918Z,28.75
2022-12-13T01:16:55.735Z,27.33
2022-12-13T01:19:24.006Z,25.02
2022-12-13T01:22:04.350Z,25.92
2022-12-13T01:24:32.178Z,27.15
2022-12-13T01:26:58.740Z,27.70
2022-12-13T01:29:27.221Z,28.20
2022-12-13T01:31:54.250Z,26.20
2022-12-13T01:34:26.465Z,27.05
2022-12-13T01:36:58.253Z,27.00
2022-12-13T01:39:27.064Z,27.02
2022-12-13T01:42:03.558Z,28.45
2022-12-13T01:45:03.081Z,28.23
2022-12-13T01:47:51.667Z,26.73
2022-12-13T01:50:23.743Z,26.73
2022-12-13T01:52:51.631Z,27.85
2022-12-13T01:55:20.367Z,26.60
2022-12-13T01:57:49.791Z,27.08
2022-12-13T02:00:17.190Z,26.58
2022-12-13T02:02:44.418Z,27.40
2022-12-13T02:05:23.557Z,27.42
2022-12-13T02:07:51.100Z,26.52
2022-12-13T02:10:17.840Z,27.05
2022-12-13T02:12:44.409Z,26.80
2022-12-13T02:15:14.466Z,25.60
2022-12-13T02:17:56.502Z,27.13
2022-12-13T02:20:50.494Z,25.88
2022-12-13T02:23:29.115Z,24.45
2022-12-13T02:26:32.946Z,26.10
2022-12-13T02:29:33.440Z,25.95
2022-12-13T02:32:18.219Z,25.85
2022-12-13T02:35:00.119Z,25.23
2022-12-13T02:37:37.596Z,25.08
2022-12-13T02:40:30.413Z,25.25
2022-12-13T02:42:59.925Z,24.25
2022-12-13T02:45:44.301Z,23.38
2022-12-13T02:48:13.159Z,24.75
2022-12-13T02:50:41.094Z,24.38
2022-12-13T02:53:09.649Z,23.58
2022-12-13T02:55:39.358Z,24.13
2022-12-13T02:58:06.353Z,23.33
2022-12-13T03:00:51.791Z,22.95
2022-12-13T03:03:24.515Z,22.48
2022-12-13T03:06:33.871Z,23.40
2022-12-13T03:09:38.473Z,20.98
2022-12-13T03:12:38.909Z,20.67
2022-12-13T03:15:25.436Z,21.27
2022-12-13T03:18:17.310Z,21.38
2022-12-13T03:20:52.957Z,20.10
2022-12-13T03:23:21.757Z,19.58
2022-12-13T03:25:54.331Z,21.33
2022-12-13T03:28:21.380Z,19.35
2022-12-13T03:30:47.942Z,19.52
2022-12-13T03:33:14.521Z,19.88
2022-12-13T03:35:45.156Z,20.88
2022-12-13T03:38:22.466Z,20.20
2022-12-13T03:40:58.923Z,19.75
2022-12-13T03:43:25.999Z,19.30
2022-12-13T03:45:54.219Z,22.00
2022-12-13T03:48:22.875Z,20.30
2022-12-13T03:50:51.625Z,21.85
2022-12-13T03:53:23.062Z,20.67
2022-12-13T03:56:01.107Z,20.13
2022-12-13T03:58:35.221Z,19.90
2022-12-13T04:01:09.467Z,21.08
2022-12-13T04:03:36.994Z,21.45
2022-12-13T04:06:04.573Z,19.73
2022-12-13T04:08:31.388Z,19.75
2022-12-13T04:10:57.878Z,19.75
2022-12-13T04:13:33.037Z,20.55
2022-12-13T04:16:00.404Z,20.27
2022-12-13T04:18:27.105Z,19.98
2022-12-13T04:20:53.840Z,20.48
2022-12-13T04:23:20.305Z,20.55
2022-12-13T04:25:46.860Z,20.55
2022-12-13T04:28:21.609Z,21.48
2022-12-13T04:30:52.611Z,20.48
2022-12-13T04:33:21.965Z,21.15
2022-12-13T04:35:48.721Z,21.92
2022-12-13T04:38:15.706Z,20.13
2022-12-13T04:40:42.465Z,21.25
2022-12-13T04:43:08.966Z,20.38
2022-12-13T04:45:35.850Z,21.42
2022-12-13T04:48:02.411Z,21.50
2022-12-13T04:50:29.020Z,19.30
2022-12-13T04:52:55.660Z,21.17
2022-12-13T04:55:22.136Z,21.80
2022-12-13T04:57:48.574Z,22.02
2022-12-13T05:00:15.803Z,21.70
2022-12-13T05:02:42.533Z,21.45
2022-12-13T05:05:10.853Z,21.10
2022-12-13T05:07:41.860Z,20.75
2022-12-13T05:10:10.167Z,21.95
2022-12-13T05:12:36.620Z,20.17
2022-12-13T05:15:03.283Z,20.60
2022-12-13T05:17:29.866Z,21.25
2022-12-13T05:19:56.381Z,22.25
2022-12-13T05:22:22.832Z,21.10
2022-12-13T05:24:49.743Z,20.75
2022-12-13T05:27:25.863Z,21.17
2022-12-13T05:30:03.344Z,20.90
2022-12-13T05:32:43.657Z,19.88
2022-12-13T05:37:53.382Z,19.42
2022-12-13T05:42:46.814Z,19.92
2022-12-13T05:45:13.679Z,21.42
2022-12-13T05:47:40.734Z,21.20
2022-12-13T05:50:07.619Z,22.00
2022-12-13T05:52:34.050Z,21.15
2022-12-13T05:55:01.126Z,19.80
2022-12-13T05:57:28.065Z,21.17
2022-12-13T05:59:54.528Z,20.65
2022-12-13T06:02:21.830Z,21.35
2022-12-13T06:04:48.737Z,20.08
2022-12-13T06:07:15.508Z,21.77
2022-12-13T06:09:42.329Z,20.75
2022-12-13T06:12:31.138Z,21.63
2022-12-13T06:15:01.389Z,19.70
2022-12-13T06:17:42.960Z,20.63
2022-12-13T06:20:23.788Z,19.92
2022-12-13T06:22:51.724Z,22.30
2022-12-13T06:25:31.387Z,21.40
2022-12-13T06:28:00.926Z,20.33
2022-12-13T06:30:31.100Z,21.10
2022-12-13T06:32:57.680Z,15.80
2022-12-13T06:35:27.982Z,21.00
2022-12-13T06:37:55.724Z,20.70
2022-12-13T06:40:31.213Z,20.70
2022-12-13T06:42:57.847Z,20.80
2022-12-13T06:45:24.952Z,20.42
2022-12-13T06:47:51.546Z,20.25
2022-12-13T06:50:18.041Z,20.95
2022-12-13T06:52:46.985Z,20.95
2022-12-13T06:55:14.060Z,20.45
2022-12-13T06:57:41.153Z,20.90
2022-12-13T07:00:08.964Z,19.05
2022-12-13T07:02:35.639Z,22.08
2022-12-13T07:05:02.255Z,21.35
2022-12-13T07:07:28.790Z,19.70
2022-12-13T07:09:55.302Z,19.30
2022-12-13T07:12:22.237Z,21.58
2022-12-13T07:14:48.790Z,19.52
2022-12-13T07:17:32.495Z,21.67
2022-12-13T07:20:07.994Z,20.58
2022-12-13T07:22:37.817Z,19.30
2022-12-13T07:25:28.136Z,21.15
2022-12-13T07:28:01.617Z,18.98
2022-12-13T07:30:30.833Z,19.90
2022-12-13T07:32:57.308Z,19.80
2022-12-13T07:35:23.745Z,19.98
2022-12-13T07:37:50.188Z,18.77
2022-12-13T07:40:16.661Z,19.50
2022-12-13T07:42:51.887Z,20.52
2022-12-13T07:45:18.901Z,17.90
2022-12-13T07:47:45.534Z,19.63
2022-12-13T07:50:23.927Z,19.92
2022-12-13T07:52:53.922Z,19.03
2022-12-13T07:55:22.932Z,19.45
2022-12-13T07:58:26.201Z,19.58
2022-12-13T08:00:52.687Z,19.88
2022-12-13T08:03:24.914Z,19.95
2022-12-13T08:06:04.497Z,18.73
2022-12-13T08:08:31.978Z,20.27
2022-12-13T08:11:17.438Z,20.20
2022-12-13T08:13:44.365Z,19.83
2022-12-13T08:16:27.337Z,19.60
2022-12-13T08:19:01.759Z,20.33
2022-12-13T08:21:53.355Z,20.00
2022-12-13T08:24:20.277Z,19.17
2022-12-13T08:26:46.739Z,18.90
2022-12-13T08:29:13.481Z,19.95
2022-12-13T08:31:50.327Z,19.08
2022-12-13T08:34:16.830Z,18.95
2022-12-13T08:36:43.365Z,19.65
2022-12-13T08:39:09.828Z,18.42
2022-12-13T08:41:39.265Z,18.30
2022-12-13T08:44:09.272Z,19.63
2022-12-13T08:46:35.824Z,19.38
2022-12-13T08:49:02.407Z,19.15
2022-12-13T08:51:35.245Z,19.60
2022-12-13T08:54:10.078Z,18.45
2022-12-13T08:56:37.986Z,18.60
2022-12-13T08:59:04.997Z,18.92
2022-12-13T09:01:31.941Z,18.58
2022-12-13T09:03:58.520Z,20.55
2022-12-13T09:06:25.043Z,18.13
2022-12-13T09:08:53.899Z,18.77
2022-12-13T09:11:36.429Z,18.75
2022-12-13T09:14:07.780Z,18.35
2022-12-13T09:16:41.280Z,18.38
2022-12-13T09:19:25.374Z,18.83
2022-12-13T09:22:02.605Z,18.88
2022-12-13T09:24:36.454Z,18.63
2022-12-13T09:27:09.629Z,18.50
2022-12-13T09:29:37.981Z,18.33
2022-12-13T09:32:06.096Z,20.00
2022-12-13T09:34:34.145Z,18.15
2022-12-13T09:37:02.005Z,18.42
2022-12-13T09:39:29.599Z,17.67
2022-12-13T09:42:01.259Z,18.65
2022-12-13T09:44:42.743Z,18.10
2022-12-13T09:47:22.934Z,18.67
2022-12-13T09:49:52.755Z,18.33
2022-12-13T09:52:24.212Z,19.40
2022-12-13T09:54:57.369Z,19.02
2022-12-13T09:57:31.460Z,18.80
2022-12-13T10:00:07.004Z,18.30
2022-12-13T10:02:43.296Z,18.50
2022-12-13T10:05:22.296Z,17.98
2022-12-13T10:07:52.972Z,18.88
2022-12-13T10:10:19.780Z,18.52
2022-12-13T10:13:19.755Z,19.65
2022-12-13T10:15:51.879Z,18.13
2022-12-13T10:18:35.236Z,18.80
2022-12-13T10:21:05.226Z,18.48
2022-12-13T10:23:42.720Z,18.48
2022-12-13T10:26:24.167Z,19.90
2022-12-13T10:29:02.970Z,19.60
2022-12-13T10:31:29.667Z,18.90
2022-12-13T10:33:58.384Z,19.75
2022-12-13T10:36:45.189Z,19.55
2022-12-13T10:39:18.443Z,19.45
2022-12-13T10:41:47.453Z,18.98
2022-12-13T10:44:22.589Z,18.05
2022-12-13T10:47:16.825Z,18.65
2022-12-13T10:49:52.587Z,18.10
2022-12-13T10:52:43.376Z,17.63
2022-12-13T10:55:33.134Z,18.73
2022-12-13T10:58:03.537Z,17.80
2022-12-13T11:00:32.247Z,18.35
2022-12-13T11:02:59.074Z,18.77
2022-12-13T11:05:36.446Z,18.15
2022-12-13T11:08:22.413Z,18.23
2022-12-13T11:11:03.525Z,17.17
2022-12-13T11:13:55.498Z,17.85
2022-12-13T11:16:35.425Z,18.85
2022-12-13T11:19:16.887Z,17.58
2022-12-13T11:21:49.281Z,18.40
2022-12-13T11:24:30.733Z,16.95
2022-12-13T11:27:00.685Z,17.52
2022-12-13T11:29:51.840Z,14.40
2022-12-13T11:32:59.294Z,18.33
2022-12-13T11:35:29.319Z,18.98
2022-12-13T11:38:16.139Z,18.00
2022-12-13T11:40:46.842Z,18.10
2022-12-13T11:45:44.747Z,18.50
2022-12-13T11:48:56.198Z,17.23
2022-12-13T11:51:31.359Z,18.08
2022-12-13T11:54:11.100Z,17.40
2022-12-13T11:56:42.864Z,17.65
2022-12-13T11:59:23.793Z,17.27
2022-12-13T12:02:05.924Z,18.58
2022-12-13T12:04:59.996Z,18.38
2022-12-13T12:07:58.506Z,17.20
2022-12-13T12:10:50.005Z,17.58
2022-12-13T12:13:22.966Z,16.20
2022-12-13T12:16:00.749Z,17.10
2022-12-13T12:18:27.826Z,19.48
2022-12-13T12:21:06.964Z,17.95
2022-12-13T12:23:52.879Z,17.55
2022-12-13T12:26:42.769Z,16.95
2022-12-13T12:29:38.354Z,17.80
2022-12-13T12:32:44.226Z,15.63
2022-12-13T12:35:29.671Z,15.63
2022-12-13T12:38:19.951Z,15.75
2022-12-13T12:41:15.638Z,15.32
2022-12-13T12:43:43.874Z,15.52
2022-12-13T12:46:17.338Z,16.80
2022-12-13T12:49:01.218Z,16.27
2022-12-13T12:51:38.264Z,17.33
2022-12-13T12:54:32.212Z,17.45
2022-12-13T12:57:10.861Z,16.55
2022-12-13T13:00:04.162Z,16.77
2022-12-13T13:03:15.786Z,16.92
2022-12-13T13:05:55.808Z,16.45
2022-12-13T13:08:43.829Z,17.30
2022-12-13T13:11:24.587Z,17.50
2022-12-13T13:14:01.770Z,16.80
2022-12-13T13:16:40.828Z,17.05
2022-12-13T13:19:16.799Z,18.00
2022-12-13T13:21:55.276Z,17.50
2022-12-13T13:24:30.805Z,18.15
2022-12-13T13:26:59.359Z,18.10
2022-12-13T13:29:28.827Z,17.73
2022-12-13T13:32:05.772Z,18.02
2022-12-13T13:34:35.238Z,18.33
2022-12-13T13:37:23.288Z,17.83
2022-12-13T13:39:58.027Z,17.15
2022-12-13T13:42:29.882Z,18.40
2022-12-13T13:45:03.925Z,17.45
2022-12-13T13:47:41.904Z,17.15
2022-12-13T13:50:08.438Z,16.42
2022-12-13T13:53:04.017Z,17.30
2022-12-13T13:56:16.537Z,17.38
2022-12-13T13:59:02.939Z,16.92
2022-12-13T14:01:59.649Z,17.45
2022-12-13T14:04:56.875Z,17.10
2022-12-13T14:07:51.109Z,17.55
2022-12-13T14:10:51.030Z,17.25
2022-12-13T14:14:22.453Z,18.02
2022-12-13T14:16:49.204Z,17.95
2022-12-13T14:19:25.685Z,17.90
2022-12-13T14:21:58.426Z,16.98
2022-12-13T14:25:08.254Z,18.25
2022-12-13T14:27:39.887Z,17.02
2022-12-13T14:30:27.586Z,18.30
2022-12-13T14:32:55.552Z,17.35
2022-12-13T14:35:33.102Z,17.73
2022-12-13T14:38:05.741Z,17.20
2022-12-13T14:40:47.431Z,17.23
2022-12-13T14:43:24.673Z,17.88
2022-12-13T14:46:15.537Z,17.25
2022-12-13T14:48:50.764Z,17.45
2022-12-13T14:51:35.291Z,17.95
2022-12-13T14:54:04.825Z,18.30
2022-12-13T14:56:31.623Z,18.38
2022-12-13T14:59:02.343Z,17.45
2022-12-13T15:04:21.609Z,16.92
2022-12-13T15:07:15.050Z,16.33
2022-12-13T15:09:44.058Z,17.13
2022-12-13T15:12:25.368Z,17.88
2022-12-13T15:15:01.294Z,18.02
2022-12-13T15:17:29.749Z,17.67
2022-12-13T15:19:57.126Z,18.15
2022-12-13T15:22:30.042Z,17.77
2022-12-13T15:24:58.053Z,17.73
2022-12-13T15:27:25.540Z,17.90
2022-12-13T15:29:54.214Z,17.10
2022-12-13T15:32:23.200Z,18.02
2022-12-13T15:34:51.641Z,18.00
2022-12-13T15:37:30.418Z,18.20
2022-12-13T15:40:07.215Z,18.42
2022-12-13T15:42:36.890Z,18.88
2022-12-13T15:45:06.516Z,17.40
2022-12-13T15:47:33.498Z,18.08
2022-12-13T15:50:05.641Z,18.25
2022-12-13T15:52:36.921Z,18.30
2022-12-13T15:55:09.110Z,17.63
2022-12-13T15:57:49.470Z,18.15
2022-12-13T16:00:19.304Z,18.08
2022-12-13T16:03:01.536Z,17.60
2022-12-13T16:05:40.262Z,18.70
2022-12-13T16:08:17.159Z,18.50
2022-12-13T16:10:52.133Z,17.42
2022-12-13T16:13:30.677Z,18.02
2022-12-13T16:16:09.454Z,18.92
2022-12-13T16:18:52.221Z,18.02
2022-12-13T16:21:19.252Z,18.70
2022-12-13T16:23:48.137Z,17.98
2022-12-13T16:26:22.200Z,18.40
2022-12-13T16:28:49.205Z,18.67
2022-12-13T16:31:36.711Z,18.92
2022-12-13T16:34:04.389Z,17.80
2022-12-13T16:36:32.019Z,17.77
2022-12-13T16:38:59.163Z,19.27
2022-12-13T16:41:25.834Z,19.67
2022-12-13T16:44:00.962Z,18.77
2022-12-13T16:47:14.732Z,18.40
2022-12-13T16:49:20.497Z,19.20
2022-12-13T16:51:48.896Z,18.23
2022-12-13T16:54:16.507Z,18.63
2022-12-13T16:56:43.635Z,18.33
2022-12-13T16:59:14.957Z,17.75
2022-12-13T17:01:42.854Z,17.75
2022-12-13T17:04:19.464Z,18.52
2022-12-13T17:06:46.948Z,17.95
2022-12-13T17:09:13.464Z,19.17
2022-12-13T17:11:40.369Z,19.73
2022-12-13T17:14:06.847Z,18.38
2022-12-13T17:16:34.011Z,18.33
2022-12-13T17:19:00.665Z,17.83
2022-12-13T17:21:29.703Z,17.98
2022-12-13T17:23:57.676Z,18.73
2022-12-13T17:26:24.623Z,18.35
2022-12-13T17:28:51.264Z,19.08
2022-12-13T17:31:19.603Z,18.73
2022-12-13T17:33:46.683Z,18.65
2022-12-13T17:36:14.787Z,20.00
2022-12-13T17:38:43.889Z,19.80
2022-12-13T17:41:12.852Z,19.05
2022-12-13T17:43:39.837Z,18.50
2022-12-13T17:46:14.598Z,18.98
2022-12-13T17:48:42.049Z,18.60
2022-12-13T17:51:10.286Z,18.13
2022-12-13T17:53:42.984Z,18.75
2022-12-13T17:56:17.811Z,18.25
2022-12-13T17:58:45.313Z,18.50
2022-12-13T18:01:17.351Z,18.33
2022-12-13T18:03:44.916Z,17.85
2022-12-13T18:06:12.117Z,19.27
2022-12-13T18:08:40.384Z,19.23
2022-12-13T18:13:55.894Z,17.92
2022-12-13T18:16:24.133Z,19.13
2022-12-13T18:18:54.963Z,18.20
2022-12-13T18:21:23.694Z,18.02
2022-12-13T18:23:55.123Z,16.25
2022-12-13T18:26:24.768Z,18.33
2022-12-13T18:28:52.148Z,18.02
2022-12-13T18:31:22.377Z,18.42
2022-12-13T18:33:50.980Z,17.65
2022-12-13T18:36:18.947Z,17.63
2022-12-13T18:38:45.739Z,17.92
2022-12-13T18:41:16.605Z,17.38
2022-12-13T18:43:44.297Z,17.65
2022-12-13T18:46:12.467Z,18.35
2022-12-13T18:48:39.580Z,18.25
2022-12-13T18:51:07.901Z,18.38
2022-12-13T18:53:35.905Z,20.38
2022-12-13T18:56:05.410Z,18.80
2022-12-13T18:58:33.290Z,19.00
2022-12-13T19:01:00.425Z,17.85
2022-12-13T19:03:27.445Z,17.95
2022-12-13T19:05:57.985Z,18.45
2022-12-13T19:08:26.514Z,17.52
2022-12-13T19:10:57.950Z,16.85
2022-12-13T19:13:26.009Z,17.27
2022-12-13T19:15:54.514Z,16.80
2022-12-13T19:18:21.730Z,17.52
2022-12-13T19:20:49.651Z,16.95
2022-12-13T19:23:17.983Z,17.88
2022-12-13T19:25:45.389Z,17.92
2022-12-13T19:28:17.708Z,18.10
2022-12-13T19:30:46.111Z,17.52
2022-12-13T19:33:13.428Z,17.40
2022-12-13T19:35:41.300Z,18.13
2022-12-13T19:38:08.535Z,17.85
2022-12-13T19:40:35.029Z,17.58
2022-12-13T19:43:01.564Z,17.13
2022-12-13T19:45:28.230Z,17.70
2022-12-13T19:47:55.378Z,18.38
2022-12-13T19:50:21.973Z,17.10
2022-12-13T19:52:48.979Z,17.92
2022-12-13T19:55:15.509Z,17.13
2022-12-13T19:57:42.031Z,17.90
2022-12-13T20:00:08.980Z,17.42
2022-12-13T20:02:35.975Z,19.48
2022-12-13T20:05:02.726Z,17.00
2022-12-13T20:07:29.382Z,18.33
2022-12-13T20:09:55.971Z,18.55
2022-12-13T20:12:22.615Z,18.75
2022-12-13T20:14:49.212Z,18.83
2022-12-13T20:17:15.863Z,18.55
2022-12-13T20:19:42.389Z,19.70
2022-12-13T20:22:09.357Z,19.58
2022-12-13T20:24:35.868Z,17.95
2022-12-13T20:27:02.675Z,18.38
2022-12-13T20:29:29.395Z,18.73
2022-12-13T20:31:56.773Z,18.27
2022-12-13T20:34:23.447Z,18.67
2022-12-13T20:36:50.278Z,18.65
2022-12-13T20:39:16.732Z,18.95
2022-12-13T20:41:43.412Z,17.60
2022-12-13T20:44:12.421Z,18.15
2022-12-13T20:46:39.860Z,16.92
2022-12-13T20:49:09.195Z,16.83
2022-12-13T20:51:37.467Z,17.27
2022-12-13T20:54:04.671Z,17.00
2022-12-13T20:56:35.179Z,17.73
2022-12-13T20:59:07.348Z,18.02
2022-12-13T21:01:37.873Z,17.48
2022-12-13T21:04:06.536Z,17.88
2022-12-13T21:06:36.038Z,16.33
2022-12-13T21:09:04.842Z,16.88
2022-12-13T21:11:43.401Z,17.13
2022-12-13T21:14:25.343Z,17.33
2022-12-13T21:16:54.612Z,17.13
2022-12-13T21:19:23.600Z,16.40
2022-12-13T21:21:51.017Z,17.75
2022-12-13T21:24:19.150Z,17.17
2022-12-13T21:26:45.978Z,17.05
2022-12-13T21:29:14.086Z,16.75
2022-12-13T21:31:43.179Z,16.23
2022-12-13T21:34:10.887Z,16.02
2022-12-13T21:36:38.821Z,15.30
2022-12-13T21:39:28.531Z,15.40
2022-12-13T21:41:55.605Z,16.15
2022-12-13T21:44:22.888Z,16.40
2022-12-13T21:49:38.414Z,15.48
2022-12-13T21:52:05.131Z,15.93
2022-12-13T21:54:31.583Z,16.10
2022-12-13T21:57:16.441Z,15.55
2022-12-13T21:59:43.322Z,15.27
2022-12-13T22:02:16.271Z,15.07
2022-12-13T22:04:45.462Z,15.93
2022-12-13T22:07:33.065Z,16.65
2022-12-13T22:10:02.279Z,15.23
2022-12-13T22:12:32.063Z,14.75
2022-12-13T22:14:58.996Z,11.70
2022-12-13T22:17:33.111Z,16.33
2022-12-13T22:20:02.832Z,15.88
2022-12-13T22:22:29.499Z,16.70
2022-12-13T22:24:56.106Z,16.23
2022-12-13T22:27:25.831Z,16.65
2022-12-13T22:29:54.142Z,12.60
2022-12-13T22:32:21.326Z,15.80
2022-12-13T22:34:50.568Z,16.88
2022-12-13T22:37:17.118Z,15.77
2022-12-13T22:39:46.098Z,15.75
2022-12-13T22:42:12.747Z,16.80
2022-12-13T22:44:42.260Z,15.23
2022-12-13T22:47:09.143Z,15.88
2022-12-13T22:49:38.025Z,15.70
2022-12-13T22:52:08.101Z,14.77
2022-12-13T22:54:36.026Z,13.10
2022-12-13T22:57:02.699Z,14.75
2022-12-13T22:59:29.324Z,14.50
2022-12-13T23:02:02.207Z,15.77
2022-12-13T23:07:12.528Z,14.10
2022-12-13T23:09:39.088Z,14.95
2022-12-13T23:12:24.502Z,14.85
2022-12-13T23:14:51.548Z,14.80
2022-12-13T23:17:18.160Z,16.35
2022-12-13T23:19:50.290Z,15.98
2022-12-13T23:22:22.036Z,16.13
2022-12-13T23:24:50.108Z,15.48
2022-12-13T23:27:17.374Z,15.60
2022-12-13T23:29:43.906Z,16.20
2022-12-13T23:32:11.665Z,15.43
2022-12-13T23:34:38.402Z,15.40
2022-12-13T23:37:04.933Z,14.73
2022-12-13T23:39:33.053Z,16.17
2022-12-13T23:41:59.552Z,14.70
2022-12-13T23:44:26.108Z,14.57
2022-12-13T23:46:52.681Z,15.02
2022-12-13T23:49:19.281Z,15.55
2022-12-13T23:51:45.824Z,15.30
2022-12-13T23:54:16.582Z,15.07
2022-12-13T23:56:43.504Z,15.25
2022-12-13T23:59:10.214Z,15.50
